SCCK weather

Contao Airport
Contao, Los Lagos Region, Chile

Public forecast

Using degrees Celsius for public forecast. Weather courtesy of forecast.io.

METAR (pilot weather report)

Closest report is El Tepual Airport, 27.4 nm (50.7 km) NW. Retrieved 2019/04/19 00:00 UTC (25 minutes ago):

SCTE 190000Z 21003KT CAVOK 07/06 Q1016 NOSIG

TAF (pilot weather forecast)

Forecast is more than 12 hours old.

Closest forecast is El Tepual Airport, 27.4 nm (50.7 km) NW. Retrieved 2019/04/18 00:00 UTC (1 day ago):

TAF SCTE 182210Z 1900/1924 16005KT 9999 FEW020 TN04/1911Z TX14/1919Z BECMG 1906/1908 BKN015 TEMPO 1908/1912 VRB02KT 2000 BR BKN007 BECMG 1918/1920 18012KT SCT030